sensor_id;sensor_type;location;lat;lon;timestamp;pressure;altitude;pressure_sealevel;temperature;humidity
38912;BME280;28444;48.056;14.408;2023-04-15T00:00:31;96298.16;;;4.70;100.00
38912;BME280;28444;48.056;14.408;2023-04-15T00:03:19;96294.53;;;4.67;100.00
38912;BME280;28444;48.056;14.408;2023-04-15T00:06:06;96296.38;;;4.65;100.00
38912;BME280;28444;48.056;14.408;2023-04-15T00:08:54;96284.88;;;4.56;100.00
38912;BME280;28444;48.056;14.408;2023-04-15T00:11:41;96301.50;;;4.53;100.00
38912;BME280;28444;48.056;14.408;2023-04-15T00:14:28;96284.88;;;4.56;100.00
38912;BME280;28444;48.056;14.408;2023-04-15T00:17:15;96285.59;;;4.57;100.00
38912;BME280;28444;48.056;14.408;2023-04-15T00:20:03;96276.94;;;4.58;100.00
38912;BME280;28444;48.056;14.408;2023-04-15T00:22:52;96281.78;;;4.60;100.00
38912;BME280;28444;48.056;14.408;2023-04-15T00:25:39;96275.13;;;4.53;100.00
38912;BME280;28444;48.056;14.408;2023-04-15T00:28:26;96273.00;;;4.52;100.00
38912;BME280;28444;48.056;14.408;2023-04-15T00:31:13;96271.72;;;4.53;100.00
38912;BME280;28444;48.056;14.408;2023-04-15T00:34:01;96273.66;;;4.60;100.00
38912;BME280;28444;48.056;14.408;2023-04-15T00:36:48;96267.13;;;4.63;100.00
38912;BME280;28444;48.056;14.408;2023-04-15T00:39:35;96278.41;;;4.52;100.00
38912;BME280;28444;48.056;14.408;2023-04-15T00:42:23;96269.19;;;4.55;100.00
38912;BME280;28444;48.056;14.408;2023-04-15T00:45:10;96262.09;;;4.59;100.00
38912;BME280;28444;48.056;14.408;2023-04-15T00:47:58;96257.13;;;4.48;100.00
38912;BME280;28444;48.056;14.408;2023-04-15T00:50:45;96250.09;;;4.45;100.00
38912;BME280;28444;48.056;14.408;2023-04-15T00:53:32;96248.88;;;4.39;100.00
38912;BME280;28444;48.056;14.408;2023-04-15T00:56:20;96249.22;;;4.43;100.00
38912;BME280;28444;48.056;14.408;2023-04-15T00:59:10;96242.03;;;4.38;100.00
38912;BME280;28444;48.056;14.408;2023-04-15T01:01:57;96245.78;;;4.42;100.00
38912;BME280;28444;48.056;14.408;2023-04-15T01:04:44;96253.44;;;4.36;100.00
38912;BME280;28444;48.056;14.408;2023-04-15T01:07:32;96250.16;;;4.38;100.00
38912;BME280;28444;48.056;14.408;2023-04-15T01:10:19;96263.41;;;4.26;100.00
38912;BME280;28444;48.056;14.408;2023-04-15T01:13:06;96255.50;;;4.20;100.00
38912;BME280;28444;48.056;14.408;2023-04-15T01:15:52;96252.41;;;4.24;100.00
38912;BME280;28444;48.056;14.408;2023-04-15T01:18:42;96256.63;;;4.09;100.00
38912;BME280;28444;48.056;14.408;2023-04-15T01:21:29;96252.69;;;4.10;100.00
38912;BME280;28444;48.056;14.408;2023-04-15T01:24:17;96250.78;;;4.21;100.00
38912;BME280;28444;48.056;14.408;2023-04-15T01:27:04;96255.88;;;4.17;100.00
38912;BME280;28444;48.056;14.408;2023-04-15T01:29:51;96255.53;;;4.13;100.00
38912;BME280;28444;48.056;14.408;2023-04-15T01:32:38;96257.53;;;4.12;100.00
38912;BME280;28444;48.056;14.408;2023-04-15T01:35:25;96256.97;;;4.14;100.00
38912;BME280;28444;48.056;14.408;2023-04-15T01:38:13;96246.66;;;4.20;100.00
38912;BME280;28444;48.056;14.408;2023-04-15T01:41:00;96249.88;;;4.26;100.00
38912;BME280;28444;48.056;14.408;2023-04-15T01:43:47;96242.63;;;4.28;100.00
38912;BME280;28444;48.056;14.408;2023-04-15T01:46:34;96241.16;;;4.35;100.00
38912;BME280;28444;48.056;14.408;2023-04-15T01:49:22;96242.09;;;4.30;100.00
38912;BME280;28444;48.056;14.408;2023-04-15T01:52:09;96235.91;;;4.37;100.00
38912;BME280;28444;48.056;14.408;2023-04-15T01:54:56;96228.56;;;4.30;100.00
38912;BME280;28444;48.056;14.408;2023-04-15T01:57:43;96227.63;;;4.35;100.00
38912;BME280;28444;48.056;14.408;2023-04-15T02:00:30;96230.88;;;4.33;100.00
38912;BME280;28444;48.056;14.408;2023-04-15T02:03:18;96225.34;;;4.24;100.00
38912;BME280;28444;48.056;14.408;2023-04-15T02:06:05;96223.41;;;4.17;100.00
38912;BME280;28444;48.056;14.408;2023-04-15T02:08:52;96226.09;;;4.17;100.00
38912;BME280;28444;48.056;14.408;2023-04-15T02:11:39;96233.72;;;4.10;100.00
38912;BME280;28444;48.056;14.408;2023-04-15T02:14:26;96233.72;;;4.10;100.00
38912;BME280;28444;48.056;14.408;2023-04-15T02:17:13;96237.41;;;3.98;100.00
38912;BME280;28444;48.056;14.408;2023-04-15T02:20:00;96233.25;;;3.97;100.00
38912;BME280;28444;48.056;14.408;2023-04-15T02:22:47;96239.38;;;3.97;100.00
38912;BME280;28444;48.056;14.408;2023-04-15T02:25:34;96244.94;;;3.99;100.00
38912;BME280;28444;48.056;14.408;2023-04-15T02:28:21;96238.66;;;3.97;100.00
38912;BME280;28444;48.056;14.408;2023-04-15T02:31:08;96260.72;;;3.85;100.00
38912;BME280;28444;48.056;14.408;2023-04-15T02:33:55;96255.50;;;3.80;100.00
38912;BME280;28444;48.056;14.408;2023-04-15T02:36:42;96256.19;;;3.88;100.00
38912;BME280;28444;48.056;14.408;2023-04-15T02:39:29;96246.81;;;3.89;100.00
38912;BME280;28444;48.056;14.408;2023-04-15T02:42:16;96250.75;;;3.96;100.00
38912;BME280;28444;48.056;14.408;2023-04-15T02:45:03;96246.22;;;3.98;100.00
38912;BME280;28444;48.056;14.408;2023-04-15T02:47:50;96242.25;;;3.99;100.00
38912;BME280;28444;48.056;14.408;2023-04-15T02:50:37;96242.63;;;3.96;100.00
38912;BME280;28444;48.056;14.408;2023-04-15T02:53:27;96233.63;;;3.93;100.00
38912;BME280;28444;48.056;14.408;2023-04-15T02:56:14;96232.53;;;3.96;100.00
38912;BME280;28444;48.056;14.408;2023-04-15T02:59:02;96226.75;;;4.00;100.00
38912;BME280;28444;48.056;14.408;2023-04-15T03:01:50;96237.34;;;4.05;100.00
38912;BME280;28444;48.056;14.408;2023-04-15T03:04:37;96223.50;;;4.01;100.00
38912;BME280;28444;48.056;14.408;2023-04-15T03:07:25;96239.34;;;4.05;100.00
38912;BME280;28444;48.056;14.408;2023-04-15T03:10:12;96230.13;;;4.08;100.00
38912;BME280;28444;48.056;14.408;2023-04-15T03:12:59;96236.59;;;4.13;100.00
38912;BME280;28444;48.056;14.408;2023-04-15T03:15:46;96231.03;;;4.10;100.00
38912;BME280;28444;48.056;14.408;2023-04-15T03:18:34;96236.81;;;4.07;100.00
38912;BME280;28444;48.056;14.408;2023-04-15T03:21:21;96231.03;;;4.03;100.00
38912;BME280;28444;48.056;14.408;2023-04-15T03:24:09;96242.06;;;4.05;100.00
38912;BME280;28444;48.056;14.408;2023-04-15T03:26:56;96244.41;;;4.01;100.00
38912;BME280;28444;48.056;14.408;2023-04-15T03:29:43;96249.50;;;3.97;100.00
38912;BME280;28444;48.056;14.408;2023-04-15T03:32:30;96259.03;;;3.98;100.00
38912;BME280;28444;48.056;14.408;2023-04-15T03:35:17;96246.13;;;3.81;100.00
38912;BME280;28444;48.056;14.408;2023-04-15T03:38:04;96259.47;;;3.79;100.00
38912;BME280;28444;48.056;14.408;2023-04-15T03:40:51;96252.09;;;3.79;100.00
38912;BME280;28444;48.056;14.408;2023-04-15T03:43:38;96257.31;;;3.85;100.00
38912;BME280;28444;48.056;14.408;2023-04-15T03:46:25;96249.34;;;3.87;100.00
38912;BME280;28444;48.056;14.408;2023-04-15T03:49:12;96250.63;;;3.86;100.00
38912;BME280;28444;48.056;14.408;2023-04-15T03:51:59;96247.19;;;3.85;100.00
38912;BME280;28444;48.056;14.408;2023-04-15T03:54:47;96245.56;;;3.90;100.00
38912;BME280;28444;48.056;14.408;2023-04-15T03:57:33;96250.03;;;3.95;100.00
38912;BME280;28444;48.056;14.408;2023-04-15T04:00:24;96253.66;;;3.90;100.00
38912;BME280;28444;48.056;14.408;2023-04-15T04:03:11;96256.91;;;3.96;100.00
38912;BME280;28444;48.056;14.408;2023-04-15T04:05:59;96254.91;;;3.97;100.00
38912;BME280;28444;48.056;14.408;2023-04-15T04:08:45;96257.22;;;4.00;100.00
38912;BME280;28444;48.056;14.408;2023-04-15T04:11:33;96258.66;;;4.01;100.00
38912;BME280;28444;48.056;14.408;2023-04-15T04:14:19;96260.09;;;4.02;100.00
38912;BME280;28444;48.056;14.408;2023-04-15T04:17:07;96261.56;;;4.03;100.00
38912;BME280;28444;48.056;14.408;2023-04-15T04:19:54;96257.00;;;4.06;100.00
38912;BME280;28444;48.056;14.408;2023-04-15T04:22:41;96260.81;;;4.03;100.00
38912;BME280;28444;48.056;14.408;2023-04-15T04:25:28;96253.25;;;4.01;100.00
38912;BME280;28444;48.056;14.408;2023-04-15T04:28:15;96260.72;;;3.85;100.00
38912;BME280;28444;48.056;14.408;2023-04-15T04:31:02;96256.19;;;3.88;100.00
38912;BME280;28444;48.056;14.408;2023-04-15T04:33:49;96270.28;;;3.86;100.00
38912;BME280;28444;48.056;14.408;2023-04-15T04:36:36;96265.22;;;3.83;100.00
38912;BME280;28444;48.056;14.408;2023-04-15T04:39:23;96267.41;;;3.77;100.00
38912;BME280;28444;48.056;14.408;2023-04-15T04:42:10;96266.28;;;3.88;100.00
38912;BME280;28444;48.056;14.408;2023-04-15T04:44:56;96267.00;;;3.88;100.00
38912;BME280;28444;48.056;14.408;2023-04-15T04:47:43;96263.63;;;3.80;100.00
38912;BME280;28444;48.056;14.408;2023-04-15T04:50:31;96270.28;;;3.86;100.00
38912;BME280;28444;48.056;14.408;2023-04-15T04:53:18;96272.94;;;3.94;100.00
38912;BME280;28444;48.056;14.408;2023-04-15T04:56:05;96270.78;;;3.93;100.00
38912;BME280;28444;48.056;14.408;2023-04-15T04:58:52;96272.38;;;4.03;100.00
38912;BME280;28444;48.056;14.408;2023-04-15T05:01:39;96283.00;;;4.01;100.00
38912;BME280;28444;48.056;14.408;2023-04-15T05:04:26;96281.94;;;3.97;100.00
38912;BME280;28444;48.056;14.408;2023-04-15T05:07:13;96276.50;;;4.04;100.00
38912;BME280;28444;48.056;14.408;2023-04-15T05:10:00;96291.69;;;4.00;100.00
38912;BME280;28444;48.056;14.408;2023-04-15T05:12:47;96288.91;;;4.15;100.00
38912;BME280;28444;48.056;14.408;2023-04-15T05:15:34;96290.19;;;4.14;100.00
38912;BME280;28444;48.056;14.408;2023-04-15T05:18:22;96295.78;;;4.08;100.00
38912;BME280;28444;48.056;14.408;2023-04-15T05:21:10;96287.16;;;4.02;100.00
38912;BME280;28444;48.056;14.408;2023-04-15T05:23:57;96303.53;;;4.12;100.00
38912;BME280;28444;48.056;14.408;2023-04-15T05:26:44;96303.19;;;4.08;100.00
38912;BME280;28444;48.056;14.408;2023-04-15T05:29:31;96306.78;;;4.10;100.00
38912;BME280;28444;48.056;14.408;2023-04-15T05:32:18;96308.97;;;4.04;100.00
38912;BME280;28444;48.056;14.408;2023-04-15T05:35:05;96312.41;;;4.05;100.00
38912;BME280;28444;48.056;14.408;2023-04-15T05:37:53;96312.91;;;4.11;100.00
38912;BME280;28444;48.056;14.408;2023-04-15T05:40:40;96318.84;;;4.09;100.00
38912;BME280;28444;48.056;14.408;2023-04-15T05:43:27;96314.50;;;4.22;100.00
38912;BME280;28444;48.056;14.408;2023-04-15T05:46:15;96314.50;;;4.22;100.00
38912;BME280;28444;48.056;14.408;2023-04-15T05:49:02;96317.88;;;4.30;100.00
38912;BME280;28444;48.056;14.408;2023-04-15T05:51:49;96313.75;;;4.29;100.00
38912;BME280;28444;48.056;14.408;2023-04-15T05:54:37;96324.59;;;4.21;100.00
38912;BME280;28444;48.056;14.408;2023-04-15T05:57:24;96321.53;;;4.25;100.00
38912;BME280;28444;48.056;14.408;2023-04-15T06:00:12;96313.41;;;4.25;100.00
38912;BME280;28444;48.056;14.408;2023-04-15T06:02:59;96314.59;;;4.31;100.00
38912;BME280;28444;48.056;14.408;2023-04-15T06:05:47;96319.66;;;4.35;100.00
38912;BME280;28444;48.056;14.408;2023-04-15T06:08:34;96322.50;;;4.45;100.00
38912;BME280;28444;48.056;14.408;2023-04-15T06:11:21;96321.44;;;4.40;100.00
38912;BME280;28444;48.056;14.408;2023-04-15T06:14:08;96325.25;;;4.37;100.00
38912;BME280;28444;48.056;14.408;2023-04-15T06:16:55;96326.50;;;4.36;100.00
38912;BME280;28444;48.056;14.408;2023-04-15T06:19:42;96323.25;;;4.38;100.00
38912;BME280;28444;48.056;14.408;2023-04-15T06:22:28;96324.84;;;4.41;100.00
38912;BME280;28444;48.056;14.408;2023-04-15T06:25:15;96330.94;;;4.49;100.00
38912;BME280;28444;48.056;14.408;2023-04-15T06:28:03;96336.97;;;4.40;100.00
38912;BME280;28444;48.056;14.408;2023-04-15T06:30:50;96329.34;;;4.46;100.00
38912;BME280;28444;48.056;14.408;2023-04-15T06:33:37;96337.03;;;4.57;100.00
38912;BME280;28444;48.056;14.408;2023-04-15T06:36:25;96336.84;;;4.63;100.00
38912;BME280;28444;48.056;14.408;2023-04-15T06:39:12;96340.31;;;4.55;100.00
38912;BME280;28444;48.056;14.408;2023-04-15T06:41:59;96338.81;;;4.62;100.00
38912;BME280;28444;48.056;14.408;2023-04-15T06:44:47;96339.19;;;4.58;100.00
38912;BME280;28444;48.056;14.408;2023-04-15T06:47:34;96342.06;;;4.61;100.00
38912;BME280;28444;48.056;14.408;2023-04-15T06:50:20;96345.91;;;4.50;100.00
38912;BME280;28444;48.056;14.408;2023-04-15T06:53:07;96354.34;;;4.62;100.00
38912;BME280;28444;48.056;14.408;2023-04-15T06:55:54;96352.56;;;4.56;100.00
38912;BME280;28444;48.056;14.408;2023-04-15T06:58:41;96355.22;;;4.64;100.00
38912;BME280;28444;48.056;14.408;2023-04-15T07:01:28;96356.31;;;4.69;100.00
38912;BME280;28444;48.056;14.408;2023-04-15T07:04:15;96363.16;;;4.70;100.00
38912;BME280;28444;48.056;14.408;2023-04-15T07:07:02;96362.34;;;4.52;100.00
38912;BME280;28444;48.056;14.408;2023-04-15T07:09:50;96356.88;;;4.59;100.00
38912;BME280;28444;48.056;14.408;2023-04-15T07:12:37;96360.63;;;4.64;100.00
38912;BME280;28444;48.056;14.408;2023-04-15T07:15:24;96369.16;;;4.61;100.00
38912;BME280;28444;48.056;14.408;2023-04-15T07:18:11;96374.56;;;4.61;100.00
38912;BME280;28444;48.056;14.408;2023-04-15T07:20:59;96380.34;;;4.57;100.00
38912;BME280;28444;48.056;14.408;2023-04-15T07:23:46;96377.44;;;4.63;100.00
38912;BME280;28444;48.056;14.408;2023-04-15T07:26:33;96379.81;;;4.58;100.00
38912;BME280;28444;48.056;14.408;2023-04-15T07:29:20;96387.94;;;4.58;100.00
38912;BME280;28444;48.056;14.408;2023-04-15T07:32:07;96387.94;;;4.58;100.00
38912;BME280;28444;48.056;14.408;2023-04-15T07:34:54;96394.28;;;4.53;100.00
38912;BME280;28444;48.056;14.408;2023-04-15T07:37:41;96388.84;;;4.53;100.00
38912;BME280;28444;48.056;14.408;2023-04-15T07:40:29;96395.44;;;4.35;100.00
38912;BME280;28444;48.056;14.408;2023-04-15T07:43:15;96399.03;;;4.38;100.00
38912;BME280;28444;48.056;14.408;2023-04-15T07:46:03;96398.84;;;4.35;100.00
38912;BME280;28444;48.056;14.408;2023-04-15T07:48:50;96400.88;;;4.27;100.00
38912;BME280;28444;48.056;14.408;2023-04-15T07:51:37;96408.06;;;4.40;100.00
38912;BME280;28444;48.056;14.408;2023-04-15T07:54:24;96406.03;;;4.48;100.00
38912;BME280;28444;48.056;14.408;2023-04-15T07:57:11;96412.84;;;4.57;100.00
38912;BME280;28444;48.056;14.408;2023-04-15T07:59:59;96413.97;;;4.46;100.00
38912;BME280;28444;48.056;14.408;2023-04-15T08:02:46;96415.06;;;4.51;100.00
38912;BME280;28444;48.056;14.408;2023-04-15T08:05:34;96417.78;;;4.51;100.00
38912;BME280;28444;48.056;14.408;2023-04-15T08:08:21;96425.88;;;4.51;100.00
38912;BME280;28444;48.056;14.408;2023-04-15T08:11:08;96434.19;;;4.45;100.00
38912;BME280;28444;48.056;14.408;2023-04-15T08:13:56;96437.88;;;4.32;100.00
38912;BME280;28444;48.056;14.408;2023-04-15T08:16:43;96430.81;;;4.37;100.00
38912;BME280;28444;48.056;14.408;2023-04-15T08:19:30;96434.03;;;4.43;100.00
38912;BME280;28444;48.056;14.408;2023-04-15T08:22:17;96431.09;;;4.56;100.00
38912;BME280;28444;48.056;14.408;2023-04-15T08:25:07;96433.75;;;4.64;100.00
38912;BME280;28444;48.056;14.408;2023-04-15T08:27:55;96435.00;;;4.71;100.00
38912;BME280;28444;48.056;14.408;2023-04-15T08:30:43;96438.88;;;4.52;100.00
38912;BME280;28444;48.056;14.408;2023-04-15T08:33:30;96438.88;;;4.52;100.00
38912;BME280;28444;48.056;14.408;2023-04-15T08:36:17;96438.53;;;4.48;100.00
38912;BME280;28444;48.056;14.408;2023-04-15T08:39:04;96441.88;;;4.64;100.00
38912;BME280;28444;48.056;14.408;2023-04-15T08:42:01;96444.59;;;4.64;100.00
38912;BME280;28444;48.056;14.408;2023-04-15T08:44:48;96455.84;;;4.53;100.00
38912;BME280;28444;48.056;14.408;2023-04-15T08:47:37;96460.66;;;4.70;100.00
38912;BME280;28444;48.056;14.408;2023-04-15T08:50:28;96459.03;;;4.67;100.00
38912;BME280;28444;48.056;14.408;2023-04-15T08:53:15;96461.75;;;4.67;100.00
38912;BME280;28444;48.056;14.408;2023-04-15T08:56:04;96465.88;;;4.68;100.00
38912;BME280;28444;48.056;14.408;2023-04-15T08:58:53;96457.53;;;4.81;100.00
38912;BME280;28444;48.056;14.408;2023-04-15T09:01:41;96471.22;;;4.91;100.00
38912;BME280;28444;48.056;14.408;2023-04-15T09:04:28;96456.38;;;4.92;100.00
38912;BME280;28444;48.056;14.408;2023-04-15T09:07:15;96470.13;;;4.86;100.00
38912;BME280;28444;48.056;14.408;2023-04-15T09:10:03;96473.03;;;4.88;100.00
38912;BME280;28444;48.056;14.408;2023-04-15T09:12:50;96471.63;;;4.72;100.00
38912;BME280;28444;48.056;14.408;2023-04-15T09:15:37;96476.53;;;4.73;100.00
38912;BME280;28444;48.056;14.408;2023-04-15T09:18:35;96471.09;;;4.73;100.00
38912;BME280;28444;48.056;14.408;2023-04-15T09:21:22;96475.78;;;4.80;100.00
38912;BME280;28444;48.056;14.408;2023-04-15T09:24:10;96471.81;;;4.74;100.00
38912;BME280;28444;48.056;14.408;2023-04-15T09:26:57;96475.09;;;4.72;100.00
38912;BME280;28444;48.056;14.408;2023-04-15T09:29:49;96482.44;;;4.87;100.00
38912;BME280;28444;48.056;14.408;2023-04-15T09:32:48;96478.41;;;4.96;100.00
38912;BME280;28444;48.056;14.408;2023-04-15T09:35:35;96476.78;;;4.93;100.00
38912;BME280;28444;48.056;14.408;2023-04-15T09:38:22;96480.03;;;4.99;100.00
38912;BME280;28444;48.056;14.408;2023-04-15T09:41:16;96491.19;;;5.03;100.00
38912;BME280;28444;48.056;14.408;2023-04-15T09:44:05;96495.19;;;5.02;100.00
38912;BME280;28444;48.056;14.408;2023-04-15T09:46:52;96493.75;;;4.93;100.00
38912;BME280;28444;48.056;14.408;2023-04-15T09:49:54;96484.25;;;4.85;100.00
38912;BME280;28444;48.056;14.408;2023-04-15T09:52:41;96494.13;;;4.90;100.00
38912;BME280;28444;48.056;14.408;2023-04-15T09:55:31;96491.44;;;4.90;100.00
38912;BME280;28444;48.056;14.408;2023-04-15T09:58:24;96502.66;;;4.86;100.00
38912;BME280;28444;48.056;14.408;2023-04-15T10:01:12;96499.38;;;4.95;100.00
38912;BME280;28444;48.056;14.408;2023-04-15T10:04:02;96490.28;;;5.00;100.00
38912;BME280;28444;48.056;14.408;2023-04-15T10:06:50;96491.75;;;5.01;100.00
38912;BME280;28444;48.056;14.408;2023-04-15T10:09:38;96506.75;;;5.02;100.00
38912;BME280;28444;48.056;14.408;2023-04-15T10:12:26;96503.59;;;5.14;100.00
38912;BME280;28444;48.056;14.408;2023-04-15T10:15:15;96507.22;;;5.16;100.00
38912;BME280;28444;48.056;14.408;2023-04-15T10:18:04;96497.75;;;5.25;100.00
38912;BME280;28444;48.056;14.408;2023-04-15T10:20:52;96507.84;;;5.32;100.00
38912;BME280;28444;48.056;14.408;2023-04-15T10:23:39;96512.06;;;5.18;100.00
38912;BME280;28444;48.056;14.408;2023-04-15T10:26:27;96511.84;;;5.31;100.00
38912;BME280;28444;48.056;14.408;2023-04-15T10:29:14;96509.28;;;5.33;100.00
38912;BME280;28444;48.056;14.408;2023-04-15T10:32:02;96515.03;;;5.37;100.00
38912;BME280;28444;48.056;14.408;2023-04-15T10:34:50;96518.25;;;5.43;100.00
38912;BME280;28444;48.056;14.408;2023-04-15T10:37:40;96520.63;;;5.39;100.00
38912;BME280;28444;48.056;14.408;2023-04-15T10:40:29;96520.97;;;5.43;100.00
38912;BME280;28444;48.056;14.408;2023-04-15T10:43:25;96520.63;;;5.39;100.00
38912;BME280;28444;48.056;14.408;2023-04-15T10:46:12;96530.81;;;5.31;100.00
38912;BME280;28444;48.056;14.408;2023-04-15T10:49:16;96519.63;;;5.27;100.00
38912;BME280;28444;48.056;14.408;2023-04-15T10:52:03;96519.91;;;5.39;100.00
38912;BME280;28444;48.056;14.408;2023-04-15T10:55:13;96530.72;;;5.46;100.00
38912;BME280;28444;48.056;14.408;2023-04-15T10:58:03;96529.44;;;5.47;100.00
38912;BME280;28444;48.056;14.408;2023-04-15T11:00:52;96530.34;;;5.50;100.00
38912;BME280;28444;48.056;14.408;2023-04-15T11:03:41;96541.75;;;5.48;100.00
38912;BME280;28444;48.056;14.408;2023-04-15T11:06:43;96537.19;;;5.51;100.00
38912;BME280;28444;48.056;14.408;2023-04-15T11:09:31;96535.19;;;5.51;100.00
38912;BME280;28444;48.056;14.408;2023-04-15T11:12:19;96545.50;;;5.53;100.00
38912;BME280;28444;48.056;14.408;2023-04-15T11:15:29;96545.50;;;5.53;100.00
38912;BME280;28444;48.056;14.408;2023-04-15T11:18:25;96539.50;;;5.54;100.00
38912;BME280;28444;48.056;14.408;2023-04-15T11:21:13;96553.53;;;5.68;100.00
38912;BME280;28444;48.056;14.408;2023-04-15T11:24:01;96549.53;;;5.69;100.00
38912;BME280;28444;48.056;14.408;2023-04-15T11:26:49;96546.00;;;5.84;100.00
38912;BME280;28444;48.056;14.408;2023-04-15T11:29:37;96552.84;;;5.93;100.00
38912;BME280;28444;48.056;14.408;2023-04-15T11:32:24;96554.16;;;5.84;100.00
38912;BME280;28444;48.056;14.408;2023-04-15T11:35:11;96554.78;;;6.00;100.00
38912;BME280;28444;48.056;14.408;2023-04-15T11:38:02;96558.47;;;5.87;100.00
38912;BME280;28444;48.056;14.408;2023-04-15T11:40:49;96561.00;;;5.93;100.00
38912;BME280;28444;48.056;14.408;2023-04-15T11:43:37;96556.56;;;6.05;100.00
38912;BME280;28444;48.056;14.408;2023-04-15T11:46:30;96552.63;;;5.98;100.00
38912;BME280;28444;48.056;14.408;2023-04-15T11:49:28;96565.81;;;6.02;100.00
38912;BME280;28444;48.056;14.408;2023-04-15T11:52:16;96564.69;;;6.05;100.00
38912;BME280;28444;48.056;14.408;2023-04-15T11:55:03;96564.47;;;6.11;100.00
38912;BME280;28444;48.056;14.408;2023-04-15T11:58:08;96566.19;;;5.98;100.00
38912;BME280;28444;48.056;14.408;2023-04-15T12:00:59;96576.84;;;6.04;100.00
38912;BME280;28444;48.056;14.408;2023-04-15T12:03:47;96573.34;;;6.11;100.00
38912;BME280;28444;48.056;14.408;2023-04-15T12:06:35;96577.41;;;6.20;100.00
38912;BME280;28444;48.056;14.408;2023-04-15T12:09:24;96585.47;;;6.10;100.00
38912;BME280;28444;48.056;14.408;2023-04-15T12:12:11;96581.59;;;6.21;100.00
38912;BME280;28444;48.056;14.408;2023-04-15T12:14:58;96581.88;;;6.08;100.00
38912;BME280;28444;48.056;14.408;2023-04-15T12:17:45;96579.16;;;6.08;100.00
38912;BME280;28444;48.056;14.408;2023-04-15T12:20:44;96582.00;;;6.17;100.00
38912;BME280;28444;48.056;14.408;2023-04-15T12:23:36;96582.59;;;6.08;100.00
38912;BME280;28444;48.056;14.408;2023-04-15T12:26:33;96585.38;;;6.00;100.00
38912;BME280;28444;48.056;14.408;2023-04-15T12:29:24;96588.13;;;5.93;100.00
38912;BME280;28444;48.056;14.408;2023-04-15T12:32:13;96596.03;;;5.98;100.00
38912;BME280;28444;48.056;14.408;2023-04-15T12:35:00;96599.00;;;5.93;100.00
38912;BME280;28444;48.056;14.408;2023-04-15T12:37:47;96597.88;;;5.96;100.00
38912;BME280;28444;48.056;14.408;2023-04-15T12:40:34;96603.78;;;6.02;100.00
38912;BME280;28444;48.056;14.408;2023-04-15T12:43:21;96608.13;;;6.05;100.00
38912;BME280;28444;48.056;14.408;2023-04-15T12:46:08;96610.31;;;6.07;100.00
38912;BME280;28444;48.056;14.408;2023-04-15T12:48:55;96613.78;;;5.99;100.00
38912;BME280;28444;48.056;14.408;2023-04-15T12:51:43;96620.31;;;5.96;100.00
38912;BME280;28444;48.056;14.408;2023-04-15T12:54:30;96619.78;;;5.90;100.00
38912;BME280;28444;48.056;14.408;2023-04-15T12:57:17;96622.50;;;5.90;100.00
38912;BME280;28444;48.056;14.408;2023-04-15T13:00:05;96626.69;;;5.84;100.00
38912;BME280;28444;48.056;14.408;2023-04-15T13:02:54;96622.03;;;5.76;100.00
38912;BME280;28444;48.056;14.408;2023-04-15T13:05:41;96625.13;;;5.73;100.00
38912;BME280;28444;48.056;14.408;2023-04-15T13:08:28;96630.13;;;5.84;100.00
38912;BME280;28444;48.056;14.408;2023-04-15T13:11:16;96639.34;;;5.89;100.00
38912;BME280;28444;48.056;14.408;2023-04-15T13:14:04;96641.72;;;5.77;100.00
38912;BME280;28444;48.056;14.408;2023-04-15T13:16:52;96650.72;;;5.87;100.00
38912;BME280;28444;48.056;14.408;2023-04-15T13:19:39;96650.19;;;5.89;100.00
38912;BME280;28444;48.056;14.408;2023-04-15T13:22:26;96646.41;;;5.84;100.00
38912;BME280;28444;48.056;14.408;2023-04-15T13:25:13;96653.63;;;5.89;100.00
38912;BME280;28444;48.056;14.408;2023-04-15T13:28:00;96652.88;;;5.96;100.00
38912;BME280;28444;48.056;14.408;2023-04-15T13:30:47;96657.53;;;6.03;100.00
38912;BME280;28444;48.056;14.408;2023-04-15T13:33:35;96655.38;;;6.02;100.00
38912;BME280;28444;48.056;14.408;2023-04-15T13:36:22;96655.16;;;6.08;100.00
38912;BME280;28444;48.056;14.408;2023-04-15T13:39:09;96657.16;;;6.07;100.00
38912;BME280;28444;48.056;14.408;2023-04-15T13:41:55;96662.34;;;6.13;100.00
38912;BME280;28444;48.056;14.408;2023-04-15T13:44:43;96661.59;;;6.20;100.00
38912;BME280;28444;48.056;14.408;2023-04-15T13:47:30;96662.88;;;6.19;100.00
38912;BME280;28444;48.056;14.408;2023-04-15T13:50:17;96657.72;;;6.31;100.00
38912;BME280;28444;48.056;14.408;2023-04-15T13:53:04;96662.25;;;6.28;100.00
38912;BME280;28444;48.056;14.408;2023-04-15T13:55:51;96668.63;;;6.23;100.00
38912;BME280;28444;48.056;14.408;2023-04-15T13:58:39;96677.00;;;6.17;100.00
38912;BME280;28444;48.056;14.408;2023-04-15T14:01:27;96669.06;;;6.12;100.00
38912;BME280;28444;48.056;14.408;2023-04-15T14:04:14;96674.53;;;6.04;100.00
38912;BME280;28444;48.056;14.408;2023-04-15T14:07:02;96669.78;;;6.12;100.00
38912;BME280;28444;48.056;14.408;2023-04-15T14:09:51;96675.09;;;6.02;100.00
38912;BME280;28444;48.056;14.408;2023-04-15T14:12:38;96679.69;;;5.92;100.00
38912;BME280;28444;48.056;14.408;2023-04-15T14:15:25;96681.91;;;5.78;100.00
38912;BME280;28444;48.056;14.408;2023-04-15T14:18:12;96683.47;;;5.89;100.00
38912;BME280;28444;48.056;14.408;2023-04-15T14:20:59;96689.06;;;5.91;100.00
38912;BME280;28444;48.056;14.408;2023-04-15T14:23:45;96693.97;;;5.93;100.00
38912;BME280;28444;48.056;14.408;2023-04-15T14:26:32;96703.34;;;5.92;100.00
38912;BME280;28444;48.056;14.408;2023-04-15T14:29:19;96697.91;;;5.92;100.00
38912;BME280;28444;48.056;14.408;2023-04-15T14:32:06;96692.88;;;5.88;100.00
38912;BME280;28444;48.056;14.408;2023-04-15T14:34:58;96701.41;;;5.85;100.00
38912;BME280;28444;48.056;14.408;2023-04-15T14:37:45;96707.56;;;5.85;100.00